sensor_id;sensor_type;location;lat;lon;timestamp;temperature;humidity
981;DHT22;479;53.514;9.994;2023-07-20T00:01:25;15.10;99.90
981;DHT22;479;53.514;9.994;2023-07-20T00:03:52;15.10;99.90
981;DHT22;479;53.514;9.994;2023-07-20T00:06:23;15.10;99.90
981;DHT22;479;53.514;9.994;2023-07-20T00:08:53;15.10;99.90
981;DHT22;479;53.514;9.994;2023-07-20T00:11:20;15.20;99.90
981;DHT22;479;53.514;9.994;2023-07-20T00:13:47;15.20;99.90
981;DHT22;479;53.514;9.994;2023-07-20T00:16:15;15.30;99.90
981;DHT22;479;53.514;9.994;2023-07-20T00:18:42;15.20;99.90
981;DHT22;479;53.514;9.994;2023-07-20T00:21:09;15.20;99.90
981;DHT22;479;53.514;9.994;2023-07-20T00:23:38;15.20;99.90
981;DHT22;479;53.514;9.994;2023-07-20T00:26:05;15.20;99.90
981;DHT22;479;53.514;9.994;2023-07-20T00:28:31;15.30;99.90
981;DHT22;479;53.514;9.994;2023-07-20T00:30:59;15.30;99.90
981;DHT22;479;53.514;9.994;2023-07-20T00:33:27;15.40;99.90
981;DHT22;479;53.514;9.994;2023-07-20T00:35:54;15.40;99.90
981;DHT22;479;53.514;9.994;2023-07-20T00:38:21;15.50;99.90
981;DHT22;479;53.514;9.994;2023-07-20T00:40:48;15.60;99.90
981;DHT22;479;53.514;9.994;2023-07-20T00:43:15;15.60;99.90
981;DHT22;479;53.514;9.994;2023-07-20T00:45:42;15.60;99.90
981;DHT22;479;53.514;9.994;2023-07-20T00:48:10;15.60;99.90
981;DHT22;479;53.514;9.994;2023-07-20T00:50:39;15.50;99.90
981;DHT22;479;53.514;9.994;2023-07-20T00:53:08;15.60;99.90
981;DHT22;479;53.514;9.994;2023-07-20T00:55:35;15.60;99.90
981;DHT22;479;53.514;9.994;2023-07-20T00:58:02;15.50;99.90
981;DHT22;479;53.514;9.994;2023-07-20T01:00:30;15.50;99.90
981;DHT22;479;53.514;9.994;2023-07-20T01:02:57;15.50;99.90
981;DHT22;479;53.514;9.994;2023-07-20T01:05:35;15.40;99.90
981;DHT22;479;53.514;9.994;2023-07-20T01:08:09;15.50;99.90
981;DHT22;479;53.514;9.994;2023-07-20T01:10:42;15.40;99.90
981;DHT22;479;53.514;9.994;2023-07-20T01:13:12;15.20;99.90
981;DHT22;479;53.514;9.994;2023-07-20T01:15:41;15.20;99.90
981;DHT22;479;53.514;9.994;2023-07-20T01:18:08;15.30;99.90
981;DHT22;479;53.514;9.994;2023-07-20T01:20:35;15.30;99.90
981;DHT22;479;53.514;9.994;2023-07-20T01:23:31;15.20;99.90
981;DHT22;479;53.514;9.994;2023-07-20T01:26:16;15.10;99.90
981;DHT22;479;53.514;9.994;2023-07-20T01:29:03;15.10;99.90
981;DHT22;479;53.514;9.994;2023-07-20T01:31:37;15.10;99.90
981;DHT22;479;53.514;9.994;2023-07-20T01:34:06;15.10;99.90
981;DHT22;479;53.514;9.994;2023-07-20T01:36:36;15.10;99.90
981;DHT22;479;53.514;9.994;2023-07-20T01:39:04;15.00;99.90
981;DHT22;479;53.514;9.994;2023-07-20T01:41:33;15.00;99.90
981;DHT22;479;53.514;9.994;2023-07-20T01:44:00;14.90;99.90
981;DHT22;479;53.514;9.994;2023-07-20T01:46:27;14.80;99.90
981;DHT22;479;53.514;9.994;2023-07-20T01:48:56;14.80;99.90
981;DHT22;479;53.514;9.994;2023-07-20T01:51:23;14.70;99.90
981;DHT22;479;53.514;9.994;2023-07-20T01:53:50;14.70;99.90
981;DHT22;479;53.514;9.994;2023-07-20T01:56:17;14.70;99.90
981;DHT22;479;53.514;9.994;2023-07-20T01:58:44;14.60;99.90
981;DHT22;479;53.514;9.994;2023-07-20T02:01:11;14.60;99.90
981;DHT22;479;53.514;9.994;2023-07-20T02:03:38;14.60;99.90
981;DHT22;479;53.514;9.994;2023-07-20T02:06:06;14.50;99.90
981;DHT22;479;53.514;9.994;2023-07-20T02:08:33;14.50;99.90
981;DHT22;479;53.514;9.994;2023-07-20T02:11:00;14.50;99.90
981;DHT22;479;53.514;9.994;2023-07-20T02:13:27;14.60;99.90
981;DHT22;479;53.514;9.994;2023-07-20T02:15:54;14.60;99.90
981;DHT22;479;53.514;9.994;2023-07-20T02:18:21;14.80;99.90
981;DHT22;479;53.514;9.994;2023-07-20T02:20:48;14.70;99.90
981;DHT22;479;53.514;9.994;2023-07-20T02:23:16;14.60;99.90
981;DHT22;479;53.514;9.994;2023-07-20T02:25:43;14.70;99.90
981;DHT22;479;53.514;9.994;2023-07-20T02:28:13;14.60;99.90
981;DHT22;479;53.514;9.994;2023-07-20T02:30:40;14.60;99.90
981;DHT22;479;53.514;9.994;2023-07-20T02:33:07;14.60;99.90
981;DHT22;479;53.514;9.994;2023-07-20T02:35:34;14.50;99.90
981;DHT22;479;53.514;9.994;2023-07-20T02:38:01;14.50;99.90
981;DHT22;479;53.514;9.994;2023-07-20T02:40:30;14.50;99.90
981;DHT22;479;53.514;9.994;2023-07-20T02:42:57;14.50;99.90
981;DHT22;479;53.514;9.994;2023-07-20T02:45:24;14.50;99.90
981;DHT22;479;53.514;9.994;2023-07-20T02:47:51;14.50;99.90
981;DHT22;479;53.514;9.994;2023-07-20T02:50:18;14.50;99.90
981;DHT22;479;53.514;9.994;2023-07-20T02:52:45;14.60;99.90
981;DHT22;479;53.514;9.994;2023-07-20T02:55:12;14.60;99.90
981;DHT22;479;53.514;9.994;2023-07-20T02:57:40;14.60;99.90
981;DHT22;479;53.514;9.994;2023-07-20T03:00:08;14.70;99.90
981;DHT22;479;53.514;9.994;2023-07-20T03:02:35;14.60;99.90
981;DHT22;479;53.514;9.994;2023-07-20T03:05:02;14.60;99.90
981;DHT22;479;53.514;9.994;2023-07-20T03:07:31;14.70;99.90
981;DHT22;479;53.514;9.994;2023-07-20T03:09:58;14.70;99.90
981;DHT22;479;53.514;9.994;2023-07-20T03:12:25;14.60;99.90
981;DHT22;479;53.514;9.994;2023-07-20T03:14:54;14.50;99.90
981;DHT22;479;53.514;9.994;2023-07-20T03:17:22;14.50;99.90
981;DHT22;479;53.514;9.994;2023-07-20T03:19:50;14.50;99.90
981;DHT22;479;53.514;9.994;2023-07-20T03:22:17;14.50;99.90
981;DHT22;479;53.514;9.994;2023-07-20T03:24:44;14.50;99.90
981;DHT22;479;53.514;9.994;2023-07-20T03:27:11;14.60;99.90
981;DHT22;479;53.514;9.994;2023-07-20T03:29:38;14.50;99.90
981;DHT22;479;53.514;9.994;2023-07-20T03:32:07;14.40;99.90
981;DHT22;479;53.514;9.994;2023-07-20T03:34:34;14.40;99.90
981;DHT22;479;53.514;9.994;2023-07-20T03:37:01;14.40;99.90
981;DHT22;479;53.514;9.994;2023-07-20T03:39:30;14.40;99.90
981;DHT22;479;53.514;9.994;2023-07-20T03:41:57;14.40;99.90
981;DHT22;479;53.514;9.994;2023-07-20T03:44:24;14.40;99.90
981;DHT22;479;53.514;9.994;2023-07-20T03:46:51;14.30;99.90
981;DHT22;479;53.514;9.994;2023-07-20T03:49:19;14.40;99.90
981;DHT22;479;53.514;9.994;2023-07-20T03:51:46;14.40;99.90
981;DHT22;479;53.514;9.994;2023-07-20T03:54:13;14.40;99.90
981;DHT22;479;53.514;9.994;2023-07-20T03:56:40;14.40;99.90
981;DHT22;479;53.514;9.994;2023-07-20T03:59:07;14.40;99.90
981;DHT22;479;53.514;9.994;2023-07-20T04:01:34;14.40;99.90
981;DHT22;479;53.514;9.994;2023-07-20T04:04:05;14.40;99.90
981;DHT22;479;53.514;9.994;2023-07-20T04:06:34;14.40;99.90
981;DHT22;479;53.514;9.994;2023-07-20T04:09:01;14.40;99.90
981;DHT22;479;53.514;9.994;2023-07-20T04:11:28;14.40;99.90
981;DHT22;479;53.514;9.994;2023-07-20T04:13:55;14.40;99.90
981;DHT22;479;53.514;9.994;2023-07-20T04:16:22;14.30;99.90
981;DHT22;479;53.514;9.994;2023-07-20T04:18:49;14.40;99.90
981;DHT22;479;53.514;9.994;2023-07-20T04:21:16;14.40;99.90
981;DHT22;479;53.514;9.994;2023-07-20T04:23:44;14.40;99.90
981;DHT22;479;53.514;9.994;2023-07-20T04:26:11;14.40;99.90
981;DHT22;479;53.514;9.994;2023-07-20T04:28:40;14.50;99.90
981;DHT22;479;53.514;9.994;2023-07-20T04:31:12;14.50;99.90
981;DHT22;479;53.514;9.994;2023-07-20T04:33:39;14.50;99.90
981;DHT22;479;53.514;9.994;2023-07-20T04:36:06;14.60;99.90
981;DHT22;479;53.514;9.994;2023-07-20T04:38:35;14.60;99.90
981;DHT22;479;53.514;9.994;2023-07-20T04:41:12;14.70;99.90
981;DHT22;479;53.514;9.994;2023-07-20T04:43:43;14.70;99.90
981;DHT22;479;53.514;9.994;2023-07-20T04:46:11;14.70;99.90
981;DHT22;479;53.514;9.994;2023-07-20T04:48:38;14.70;99.90
981;DHT22;479;53.514;9.994;2023-07-20T04:51:06;14.60;99.90
981;DHT22;479;53.514;9.994;2023-07-20T04:53:33;14.70;99.90
981;DHT22;479;53.514;9.994;2023-07-20T04:56:00;14.80;99.90
981;DHT22;479;53.514;9.994;2023-07-20T04:58:30;14.80;99.90
981;DHT22;479;53.514;9.994;2023-07-20T05:00:56;14.90;99.90
981;DHT22;479;53.514;9.994;2023-07-20T05:03:23;15.00;99.90
981;DHT22;479;53.514;9.994;2023-07-20T05:05:50;15.00;99.90
981;DHT22;479;53.514;9.994;2023-07-20T05:08:17;15.10;99.90
981;DHT22;479;53.514;9.994;2023-07-20T05:10:44;15.10;99.90
981;DHT22;479;53.514;9.994;2023-07-20T05:13:11;15.00;99.90
981;DHT22;479;53.514;9.994;2023-07-20T05:15:39;15.00;99.90
981;DHT22;479;53.514;9.994;2023-07-20T05:18:10;15.00;99.90
981;DHT22;479;53.514;9.994;2023-07-20T05:20:38;15.00;99.90
981;DHT22;479;53.514;9.994;2023-07-20T05:23:05;15.00;99.90
981;DHT22;479;53.514;9.994;2023-07-20T05:25:32;15.00;99.90
981;DHT22;479;53.514;9.994;2023-07-20T05:27:59;15.10;99.90
981;DHT22;479;53.514;9.994;2023-07-20T05:30:26;15.10;99.90
981;DHT22;479;53.514;9.994;2023-07-20T05:32:56;15.10;99.90
981;DHT22;479;53.514;9.994;2023-07-20T05:35:23;15.20;99.90
981;DHT22;479;53.514;9.994;2023-07-20T05:37:49;15.30;99.90
981;DHT22;479;53.514;9.994;2023-07-20T05:40:16;15.40;99.90
981;DHT22;479;53.514;9.994;2023-07-20T05:42:44;15.50;99.90
981;DHT22;479;53.514;9.994;2023-07-20T05:45:14;15.60;99.90
981;DHT22;479;53.514;9.994;2023-07-20T05:47:41;15.70;99.90
981;DHT22;479;53.514;9.994;2023-07-20T05:50:10;15.80;99.90
981;DHT22;479;53.514;9.994;2023-07-20T05:52:37;15.90;99.90
981;DHT22;479;53.514;9.994;2023-07-20T05:55:05;16.10;99.90
981;DHT22;479;53.514;9.994;2023-07-20T05:57:32;16.10;99.90
981;DHT22;479;53.514;9.994;2023-07-20T05:59:59;16.20;99.90
981;DHT22;479;53.514;9.994;2023-07-20T06:02:26;16.10;99.90
981;DHT22;479;53.514;9.994;2023-07-20T06:04:53;16.20;99.90
981;DHT22;479;53.514;9.994;2023-07-20T06:07:21;16.20;99.90
981;DHT22;479;53.514;9.994;2023-07-20T06:09:48;16.20;99.90
981;DHT22;479;53.514;9.994;2023-07-20T06:12:15;16.30;99.90
981;DHT22;479;53.514;9.994;2023-07-20T06:14:42;16.30;99.90
981;DHT22;479;53.514;9.994;2023-07-20T06:17:09;16.50;99.90
981;DHT22;479;53.514;9.994;2023-07-20T06:19:36;16.60;99.90
981;DHT22;479;53.514;9.994;2023-07-20T06:22:03;16.70;99.90
981;DHT22;479;53.514;9.994;2023-07-20T06:24:32;16.60;99.90
981;DHT22;479;53.514;9.994;2023-07-20T06:26:59;16.60;99.90
981;DHT22;479;53.514;9.994;2023-07-20T06:29:25;16.70;99.90
981;DHT22;479;53.514;9.994;2023-07-20T06:31:52;16.90;99.90
981;DHT22;479;53.514;9.994;2023-07-20T06:34:19;16.90;99.90
981;DHT22;479;53.514;9.994;2023-07-20T06:36:46;17.00;99.90
981;DHT22;479;53.514;9.994;2023-07-20T06:39:13;17.10;99.90
981;DHT22;479;53.514;9.994;2023-07-20T06:41:42;17.30;99.90
981;DHT22;479;53.514;9.994;2023-07-20T06:44:09;17.30;99.90
981;DHT22;479;53.514;9.994;2023-07-20T06:46:36;17.20;99.90
981;DHT22;479;53.514;9.994;2023-07-20T06:49:06;17.20;99.90
981;DHT22;479;53.514;9.994;2023-07-20T06:51:33;17.10;99.90
981;DHT22;479;53.514;9.994;2023-07-20T06:54:00;17.00;99.90
981;DHT22;479;53.514;9.994;2023-07-20T06:56:27;17.10;99.90
981;DHT22;479;53.514;9.994;2023-07-20T06:58:55;17.40;99.90
981;DHT22;479;53.514;9.994;2023-07-20T07:01:22;17.70;99.90
981;DHT22;479;53.514;9.994;2023-07-20T07:03:49;17.70;99.90
981;DHT22;479;53.514;9.994;2023-07-20T07:06:16;17.70;99.90
981;DHT22;479;53.514;9.994;2023-07-20T07:08:43;17.50;99.90
981;DHT22;479;53.514;9.994;2023-07-20T07:11:10;17.20;99.90
981;DHT22;479;53.514;9.994;2023-07-20T07:13:37;17.00;99.90
981;DHT22;479;53.514;9.994;2023-07-20T07:16:05;17.30;99.90
981;DHT22;479;53.514;9.994;2023-07-20T07:18:32;17.40;99.90
981;DHT22;479;53.514;9.994;2023-07-20T07:20:59;17.50;99.90
981;DHT22;479;53.514;9.994;2023-07-20T07:23:26;17.50;99.90
981;DHT22;479;53.514;9.994;2023-07-20T07:25:53;17.50;99.90
981;DHT22;479;53.514;9.994;2023-07-20T07:28:20;17.40;99.90
981;DHT22;479;53.514;9.994;2023-07-20T07:30:47;17.50;99.90
981;DHT22;479;53.514;9.994;2023-07-20T07:33:15;17.50;99.90
981;DHT22;479;53.514;9.994;2023-07-20T07:35:42;17.70;99.90
981;DHT22;479;53.514;9.994;2023-07-20T07:38:09;18.40;99.90
981;DHT22;479;53.514;9.994;2023-07-20T07:40:36;18.80;99.90
981;DHT22;479;53.514;9.994;2023-07-20T07:43:03;18.70;99.90
981;DHT22;479;53.514;9.994;2023-07-20T07:45:30;18.50;99.90
981;DHT22;479;53.514;9.994;2023-07-20T07:47:57;18.20;99.90
981;DHT22;479;53.514;9.994;2023-07-20T07:50:25;17.80;99.90
981;DHT22;479;53.514;9.994;2023-07-20T07:52:52;17.70;99.90
981;DHT22;479;53.514;9.994;2023-07-20T07:55:19;17.90;99.90
981;DHT22;479;53.514;9.994;2023-07-20T07:57:46;18.20;99.90
981;DHT22;479;53.514;9.994;2023-07-20T08:00:15;18.40;99.90
981;DHT22;479;53.514;9.994;2023-07-20T08:02:44;18.60;99.90
981;DHT22;479;53.514;9.994;2023-07-20T08:05:12;18.70;99.90
981;DHT22;479;53.514;9.994;2023-07-20T08:07:40;18.50;99.90
981;DHT22;479;53.514;9.994;2023-07-20T08:10:08;18.30;99.90
981;DHT22;479;53.514;9.994;2023-07-20T08:12:35;18.50;99.90
981;DHT22;479;53.514;9.994;2023-07-20T08:15:02;18.80;99.90
981;DHT22;479;53.514;9.994;2023-07-20T08:17:30;19.20;99.90
981;DHT22;479;53.514;9.994;2023-07-20T08:19:57;19.60;99.90
981;DHT22;479;53.514;9.994;2023-07-20T08:22:23;20.00;99.90
981;DHT22;479;53.514;9.994;2023-07-20T08:24:52;20.20;99.90
981;DHT22;479;53.514;9.994;2023-07-20T08:27:18;20.20;99.90
981;DHT22;479;53.514;9.994;2023-07-20T08:29:45;20.10;99.90
981;DHT22;479;53.514;9.994;2023-07-20T08:32:12;20.10;99.90
981;DHT22;479;53.514;9.994;2023-07-20T08:34:41;19.80;99.90
981;DHT22;479;53.514;9.994;2023-07-20T08:37:08;19.50;99.90
981;DHT22;479;53.514;9.994;2023-07-20T08:39:35;19.70;99.90
981;DHT22;479;53.514;9.994;2023-07-20T08:42:04;19.90;99.90
981;DHT22;479;53.514;9.994;2023-07-20T08:44:32;19.70;99.90
981;DHT22;479;53.514;9.994;2023-07-20T08:47:01;19.50;99.90
981;DHT22;479;53.514;9.994;2023-07-20T08:49:29;19.40;99.90
981;DHT22;479;53.514;9.994;2023-07-20T08:51:58;19.40;99.90
981;DHT22;479;53.514;9.994;2023-07-20T08:54:27;19.10;99.90
981;DHT22;479;53.514;9.994;2023-07-20T08:56:57;19.00;99.90
981;DHT22;479;53.514;9.994;2023-07-20T08:59:25;19.00;99.90
981;DHT22;479;53.514;9.994;2023-07-20T09:01:54;19.40;99.90
981;DHT22;479;53.514;9.994;2023-07-20T09:04:21;20.40;99.90
981;DHT22;479;53.514;9.994;2023-07-20T09:06:49;21.10;99.90
981;DHT22;479;53.514;9.994;2023-07-20T09:09:16;21.80;99.90
981;DHT22;479;53.514;9.994;2023-07-20T09:11:44;22.10;99.90
981;DHT22;479;53.514;9.994;2023-07-20T09:14:12;22.80;99.90
981;DHT22;479;53.514;9.994;2023-07-20T09:16:52;22.80;99.90
981;DHT22;479;53.514;9.994;2023-07-20T09:19:20;22.70;99.90
981;DHT22;479;53.514;9.994;2023-07-20T09:21:49;22.70;99.90
981;DHT22;479;53.514;9.994;2023-07-20T09:24:17;23.40;99.90
981;DHT22;479;53.514;9.994;2023-07-20T09:26:46;23.60;99.90
981;DHT22;479;53.514;9.994;2023-07-20T09:29:14;23.80;99.90
981;DHT22;479;53.514;9.994;2023-07-20T09:32:00;24.40;99.90
981;DHT22;479;53.514;9.994;2023-07-20T09:34:28;23.90;99.90
981;DHT22;479;53.514;9.994;2023-07-20T09:36:55;23.60;99.00
981;DHT22;479;53.514;9.994;2023-07-20T09:39:22;22.60;96.30
981;DHT22;479;53.514;9.994;2023-07-20T09:41:50;21.70;98.10
981;DHT22;479;53.514;9.994;2023-07-20T09:44:18;20.50;99.90
981;DHT22;479;53.514;9.994;2023-07-20T09:46:45;19.30;99.90
981;DHT22;479;53.514;9.994;2023-07-20T09:49:14;18.50;99.90
981;DHT22;479;53.514;9.994;2023-07-20T09:51:42;18.10;99.90
981;DHT22;479;53.514;9.994;2023-07-20T09:54:10;17.90;99.90
981;DHT22;479;53.514;9.994;2023-07-20T09:56:38;17.80;99.90
981;DHT22;479;53.514;9.994;2023-07-20T09:59:06;18.00;99.90
981;DHT22;479;53.514;9.994;2023-07-20T10:01:34;18.50;99.90
981;DHT22;479;53.514;9.994;2023-07-20T10:04:03;19.20;99.90
981;DHT22;479;53.514;9.994;2023-07-20T10:06:33;20.00;99.90
981;DHT22;479;53.514;9.994;2023-07-20T10:09:02;20.30;99.90
981;DHT22;479;53.514;9.994;2023-07-20T10:11:35;21.00;99.90
981;DHT22;479;53.514;9.994;2023-07-20T10:14:03;21.30;99.90
981;DHT22;479;53.514;9.994;2023-07-20T10:16:35;21.60;99.90
981;DHT22;479;53.514;9.994;2023-07-20T10:19:05;22.00;99.90
981;DHT22;479;53.514;9.994;2023-07-20T10:21:40;22.30;99.90
981;DHT22;479;53.514;9.994;2023-07-20T10:24:07;22.20;99.90
981;DHT22;479;53.514;9.994;2023-07-20T10:26:37;22.10;99.90
981;DHT22;479;53.514;9.994;2023-07-20T10:29:07;21.60;99.90
981;DHT22;479;53.514;9.994;2023-07-20T10:31:35;20.80;99.90
981;DHT22;479;53.514;9.994;2023-07-20T10:34:04;20.20;99.90
981;DHT22;479;53.514;9.994;2023-07-20T10:36:31;20.30;99.90
981;DHT22;479;53.514;9.994;2023-07-20T10:38:59;20.60;99.90
981;DHT22;479;53.514;9.994;2023-07-20T10:41:33;21.20;99.90
981;DHT22;479;53.514;9.994;2023-07-20T10:44:01;21.00;99.90
981;DHT22;479;53.514;9.994;2023-07-20T10:46:42;20.70;99.90
981;DHT22;479;53.514;9.994;2023-07-20T10:49:11;20.60;99.90
981;DHT22;479;53.514;9.994;2023-07-20T10:51:40;20.20;99.90
981;DHT22;479;53.514;9.994;2023-07-20T10:54:33;19.80;99.90
981;DHT22;479;53.514;9.994;2023-07-20T10:57:22;18.90;99.90
981;DHT22;479;53.514;9.994;2023-07-20T10:59:49;18.60;99.90
981;DHT22;479;53.514;9.994;2023-07-20T11:02:18;18.80;99.90
981;DHT22;479;53.514;9.994;2023-07-20T11:04:46;19.10;99.90
981;DHT22;479;53.514;9.994;2023-07-20T11:07:15;19.90;99.90
981;DHT22;479;53.514;9.994;2023-07-20T11:09:44;20.80;99.90
981;DHT22;479;53.514;9.994;2023-07-20T11:12:12;21.20;99.90
981;DHT22;479;53.514;9.994;2023-07-20T11:14:41;20.70;99.90
981;DHT22;479;53.514;9.994;2023-07-20T11:17:12;19.60;99.90
981;DHT22;479;53.514;9.994;2023-07-20T11:19:40;18.70;99.90
981;DHT22;479;53.514;9.994;2023-07-20T11:22:08;18.40;99.90
981;DHT22;479;53.514;9.994;2023-07-20T11:24:39;18.00;99.90
981;DHT22;479;53.514;9.994;2023-07-20T11:27:07;17.80;99.90
981;DHT22;479;53.514;9.994;2023-07-20T11:29:35;17.70;99.90
981;DHT22;479;53.514;9.994;2023-07-20T11:32:02;17.90;99.90
981;DHT22;479;53.514;9.994;2023-07-20T11:34:30;18.00;99.90
981;DHT22;479;53.514;9.994;2023-07-20T11:36:58;18.10;99.90
981;DHT22;479;53.514;9.994;2023-07-20T11:39:25;18.20;99.90
981;DHT22;479;53.514;9.994;2023-07-20T11:41:54;18.10;99.90
981;DHT22;479;53.514;9.994;2023-07-20T11:44:24;18.40;99.90
981;DHT22;479;53.514;9.994;2023-07-20T11:47:00;18.60;99.90
981;DHT22;479;53.514;9.994;2023-07-20T11:49:28;19.10;99.90
981;DHT22;479;53.514;9.994;2023-07-20T11:51:56;19.30;99.90
981;DHT22;479;53.514;9.994;2023-07-20T11:57:21;19.40;99.90
981;DHT22;479;53.514;9.994;2023-07-20T11:59:54;19.80;99.90
981;DHT22;479;53.514;9.994;2023-07-20T12:02:23;20.20;99.90
981;DHT22;479;53.514;9.994;2023-07-20T12:04:51;20.50;99.90
981;DHT22;479;53.514;9.994;2023-07-20T12:07:18;20.50;99.90
981;DHT22;479;53.514;9.994;2023-07-20T12:10:03;20.10;99.90
981;DHT22;479;53.514;9.994;2023-07-20T12:12:31;20.30;99.90
981;DHT22;479;53.514;9.994;2023-07-20T12:15:15;20.50;99.90
981;DHT22;479;53.514;9.994;2023-07-20T12:17:43;20.40;99.90
981;DHT22;479;53.514;9.994;2023-07-20T12:20:11;20.40;99.90
981;DHT22;479;53.514;9.994;2023-07-20T12:22:41;20.40;99.90
981;DHT22;479;53.514;9.994;2023-07-20T12:25:10;20.40;99.90
981;DHT22;479;53.514;9.994;2023-07-20T12:27:37;20.00;99.90
981;DHT22;479;53.514;9.994;2023-07-20T12:30:05;19.60;99.90
981;DHT22;479;53.514;9.994;2023-07-20T12:32:34;19.30;99.90
981;DHT22;479;53.514;9.994;2023-07-20T12:35:01;18.80;99.90
981;DHT22;479;53.514;9.994;2023-07-20T12:37:28;18.50;99.90
981;DHT22;479;53.514;9.994;2023-07-20T12:39:55;18.50;99.90
981;DHT22;479;53.514;9.994;2023-07-20T12:42:22;18.60;99.90
981;DHT22;479;53.514;9.994;2023-07-20T12:44:49;18.80;99.90
981;DHT22;479;53.514;9.994;2023-07-20T12:47:17;19.00;99.90
981;DHT22;479;53.514;9.994;2023-07-20T12:49:45;19.10;99.90
981;DHT22;479;53.514;9.994;2023-07-20T12:52:12;19.20;99.90
981;DHT22;479;53.514;9.994;2023-07-20T12:54:39;19.30;99.90
981;DHT22;479;53.514;9.994;2023-07-20T12:57:06;19.20;99.90
981;DHT22;479;53.514;9.994;2023-07-20T12:59:33;19.30;99.90
981;DHT22;479;53.514;9.994;2023-07-20T13:02:00;19.20;99.90
981;DHT22;479;53.514;9.994;2023-07-20T13:04:27;19.40;99.90
981;DHT22;479;53.514;9.994;2023-07-20T13:06:55;19.60;99.90
981;DHT22;479;53.514;9.994;2023-07-20T13:09:24;19.90;99.90
981;DHT22;479;53.514;9.994;2023-07-20T13:11:51;20.10;99.90
981;DHT22;479;53.514;9.994;2023-07-20T13:14:18;20.10;99.90
981;DHT22;479;53.514;9.994;2023-07-20T13:16:45;20.00;99.90
981;DHT22;479;53.514;9.994;2023-07-20T13:19:12;19.90;99.90
981;DHT22;479;53.514;9.994;2023-07-20T13:21:39;19.70;99.90
981;DHT22;479;53.514;9.994;2023-07-20T13:24:08;19.60;99.90
981;DHT22;479;53.514;9.994;2023-07-20T13:26:35;19.70;99.90
981;DHT22;479;53.514;9.994;2023-07-20T13:29:02;19.90;99.90
981;DHT22;479;53.514;9.994;2023-07-20T13:31:30;20.10;99.90
981;DHT22;479;53.514;9.994;2023-07-20T13:33:57;20.30;99.90
981;DHT22;479;53.514;9.994;2023-07-20T13:36:24;20.40;99.90
981;DHT22;479;53.514;9.994;2023-07-20T13:38:51;20.30;99.90
981;DHT22;479;53.514;9.994;2023-07-20T13:41:19;20.10;99.90
981;DHT22;479;53.514;9.994;2023-07-20T13:43:46;19.90;99.90
981;DHT22;479;53.514;9.994;2023-07-20T13:46:13;19.70;99.90
981;DHT22;479;53.514;9.994;2023-07-20T13:48:39;19.90;99.90
981;DHT22;479;53.514;9.994;2023-07-20T13:51:06;20.00;99.90
981;DHT22;479;53.514;9.994;2023-07-20T13:53:33;20.00;99.90
981;DHT22;479;53.514;9.994;2023-07-20T13:56:00;20.00;99.90
981;DHT22;479;53.514;9.994;2023-07-20T13:58:32;20.00;99.90
981;DHT22;479;53.514;9.994;2023-07-20T14:00:59;20.10;99.90
981;DHT22;479;53.514;9.994;2023-07-20T14:03:25;20.20;99.90
981;DHT22;479;53.514;9.994;2023-07-20T14:05:52;20.30;99.90
981;DHT22;479;53.514;9.994;2023-07-20T14:08:20;20.30;99.90
981;DHT22;479;53.514;9.994;2023-07-20T14:10:47;20.30;99.90
981;DHT22;479;53.514;9.994;2023-07-20T14:13:14;20.30;99.90
981;DHT22;479;53.514;9.994;2023-07-20T14:15:42;20.40;99.90
981;DHT22;479;53.514;9.994;2023-07-20T14:18:09;20.50;99.30
981;DHT22;479;53.514;9.994;2023-07-20T14:20:36;20.40;98.00
981;DHT22;479;53.514;9.994;2023-07-20T14:23:03;20.20;99.20
981;DHT22;479;53.514;9.994;2023-07-20T14:25:29;20.20;99.90
981;DHT22;479;53.514;9.994;2023-07-20T14:27:58;20.20;99.90
981;DHT22;479;53.514;9.994;2023-07-20T14:30:25;20.20;99.90
981;DHT22;479;53.514;9.994;2023-07-20T14:32:53;20.40;99.90
981;DHT22;479;53.514;9.994;2023-07-20T14:35:20;20.30;99.90
981;DHT22;479;53.514;9.994;2023-07-20T14:37:47;20.30;99.90
981;DHT22;479;53.514;9.994;2023-07-20T14:40:16;20.40;99.90
981;DHT22;479;53.514;9.994;2023-07-20T14:42:43;20.10;99.00
981;DHT22;479;53.514;9.994;2023-07-20T14:45:09;20.00;98.40
981;DHT22;479;53.514;9.994;2023-07-20T14:47:36;20.00;99.30
981;DHT22;479;53.514;9.994;2023-07-20T14:50:06;20.10;99.60
981;DHT22;479;53.514;9.994;2023-07-20T14:52:33;20.20;99.80
981;DHT22;479;53.514;9.994;2023-07-20T14:55:00;20.30;99.90
981;DHT22;479;53.514;9.994;2023-07-20T14:57:27;20.30;98.30
981;DHT22;479;53.514;9.994;2023-07-20T14:59:54;20.50;98.20
981;DHT22;479;53.514;9.994;2023-07-20T15:02:20;20.60;97.60
981;DHT22;479;53.514;9.994;2023-07-20T15:04:50;20.70;97.60
981;DHT22;479;53.514;9.994;2023-07-20T15:07:19;20.70;96.60
981;DHT22;479;53.514;9.994;2023-07-20T15:09:47;20.60;96.70
981;DHT22;479;53.514;9.994;2023-07-20T15:12:14;20.60;96.80
981;DHT22;479;53.514;9.994;2023-07-20T15:14:42;20.50;96.70
981;DHT22;479;53.514;9.994;2023-07-20T15:17:09;20.30;96.80
981;DHT22;479;53.514;9.994;2023-07-20T15:19:35;20.20;97.60
981;DHT22;479;53.514;9.994;2023-07-20T15:22:04;20.00;97.90
981;DHT22;479;53.514;9.994;2023-07-20T15:24:33;20.10;98.20
981;DHT22;479;53.514;9.994;2023-07-20T15:27:02;20.00;98.60
981;DHT22;479;53.514;9.994;2023-07-20T15:29:29;20.10;99.10
981;DHT22;479;53.514;9.994;2023-07-20T15:31:56;20.00;99.20
981;DHT22;479;53.514;9.994;2023-07-20T15:34:23;20.00;99.40
981;DHT22;479;53.514;9.994;2023-07-20T15:36:50;19.90;99.90
981;DHT22;479;53.514;9.994;2023-07-20T15:39:17;20.10;99.90
981;DHT22;479;53.514;9.994;2023-07-20T15:41:47;20.10;99.50
981;DHT22;479;53.514;9.994;2023-07-20T15:44:14;20.00;98.90
981;DHT22;479;53.514;9.994;2023-07-20T15:46:46;19.90;99.80
981;DHT22;479;53.514;9.994;2023-07-20T15:49:14;19.90;99.20
981;DHT22;479;53.514;9.994;2023-07-20T15:51:41;20.00;98.80
981;DHT22;479;53.514;9.994;2023-07-20T15:54:09;20.00;99.00
981;DHT22;479;53.514;9.994;2023-07-20T15:56:37;19.90;99.30
981;DHT22;479;53.514;9.994;2023-07-20T15:59:07;19.90;98.10
981;DHT22;479;53.514;9.994;2023-07-20T16:01:34;19.70;97.70
981;DHT22;479;53.514;9.994;2023-07-20T16:04:02;19.80;97.00
981;DHT22;479;53.514;9.994;2023-07-20T16:06:28;19.80;97.00
981;DHT22;479;53.514;9.994;2023-07-20T16:08:55;19.90;97.40
981;DHT22;479;53.514;9.994;2023-07-20T16:11:22;20.00;98.10
981;DHT22;479;53.514;9.994;2023-07-20T16:13:49;20.00;96.80
981;DHT22;479;53.514;9.994;2023-07-20T16:16:19;19.90;97.40
981;DHT22;479;53.514;9.994;2023-07-20T16:18:45;19.80;97.50
981;DHT22;479;53.514;9.994;2023-07-20T16:21:12;19.80;98.10
981;DHT22;479;53.514;9.994;2023-07-20T16:23:39;19.70;98.80
981;DHT22;479;53.514;9.994;2023-07-20T16:26:06;19.70;99.70
981;DHT22;479;53.514;9.994;2023-07-20T16:28:33;19.80;99.90
981;DHT22;479;53.514;9.994;2023-07-20T16:31:04;19.80;99.80
981;DHT22;479;53.514;9.994;2023-07-20T16:33:36;19.80;98.40
981;DHT22;479;53.514;9.994;2023-07-20T16:36:08;19.70;99.20
981;DHT22;479;53.514;9.994;2023-07-20T16:38:36;19.60;99.70
981;DHT22;479;53.514;9.994;2023-07-20T16:41:05;19.70;99.90
981;DHT22;479;53.514;9.994;2023-07-20T16:43:32;19.60;98.20